Terminal Aerodrome Forecast
Issued by NWS

Home | Current Version | Previous Version | Text Only | Print | Product List | Glossary On
Versions: 1 2 3 4 5 6 7 8 9 10 11 12 13 14 15 16 17 18 19 20 21
000
FTUS44 KEWX 221100
TAFSSF
TAF
KSSF 221123Z 2212/2312 16007KT P6SM SCT022
      TEMPO 2212/2214 BKN020
     FM221600 17012KT P6SM FEW035
     FM222100 15014G25KT P6SM FEW080
     FM230800 16010KT P6SM BKN018=

USA.gov is the U.S. government's official web portal to all federal, state and local government web resources and services.